Time;durP1;ratioP1;P1;durP2;ratioP2;P2;SDS_P1;SDS_P2;PMS_P1;PMS_P2;Temp;Humidity;BMP_temperature;BMP_pressure;BME280_temperature;BME280_humidity;BME280_pressure;Samples;Min_cycle;Max_cycle;Signal;HPM_P1;HPM_P2
2021/06/18 00:02:05;;;;;;;8.30;6.37;;;21.20;99.90;;;;;;5075841;28;20443;-73
2021/06/18 00:04:51;;;;;;;8.43;6.10;;;21.10;99.90;;;;;;5077667;28;21117;-73
2021/06/18 00:07:40;;;;;;;7.70;6.57;;;21.10;99.90;;;;;;5075863;28;20459;-73
2021/06/18 00:10:27;;;;;;;9.13;6.03;;;21.10;99.90;;;;;;5064500;28;20471;-73
2021/06/18 00:13:12;;;;;;;11.73;6.47;;;21.00;99.90;;;;;;5076948;28;20451;-73
2021/06/18 00:15:58;;;;;;;10.20;5.40;;;20.90;99.90;;;;;;5076185;28;20466;-73
2021/06/18 00:18:43;;;;;;;7.60;6.00;;;20.80;99.90;;;;;;5057690;28;20440;-72
2021/06/18 00:21:29;;;;;;;7.73;5.87;;;20.80;99.90;;;;;;5069590;28;20468;-73
2021/06/18 00:24:16;;;;;;;10.30;6.80;;;20.70;99.90;;;;;;5076111;28;20452;-73
2021/06/18 00:27:01;;;;;;;10.27;6.00;;;20.60;99.90;;;;;;5069635;28;20590;-73
2021/06/18 00:29:47;;;;;;;6.67;5.50;;;20.60;99.90;;;;;;5065257;28;20468;-73
2021/06/18 00:32:33;;;;;;;8.63;5.17;;;20.50;99.90;;;;;;5074127;28;20498;-73
2021/06/18 00:35:19;;;;;;;7.33;5.40;;;20.40;99.90;;;;;;5066937;28;20554;-73
2021/06/18 00:38:05;;;;;;;6.30;5.17;;;20.50;99.90;;;;;;5060069;28;20454;-73
2021/06/18 00:40:52;;;;;;;11.80;5.80;;;20.40;99.90;;;;;;5074173;28;20451;-73
2021/06/18 00:43:37;;;;;;;7.63;5.97;;;20.50;99.90;;;;;;5062795;28;20572;-74
2021/06/18 00:46:23;;;;;;;8.43;5.87;;;20.50;99.90;;;;;;5068284;28;20464;-73
2021/06/18 00:49:11;;;;;;;8.40;5.23;;;20.60;99.90;;;;;;5065936;28;20475;-73
2021/06/18 00:51:57;;;;;;;8.40;5.80;;;20.60;99.90;;;;;;5066776;28;20593;-73
2021/06/18 00:54:44;;;;;;;12.17;6.67;;;20.40;99.90;;;;;;5068179;28;20814;-73
2021/06/18 00:57:32;;;;;;;7.73;6.43;;;20.30;99.90;;;;;;5066792;28;20444;-73
2021/06/18 01:00:19;;;;;;;8.70;6.37;;;20.30;99.90;;;;;;5069205;28;20428;-73
2021/06/18 01:03:04;;;;;;;8.47;5.80;;;20.30;99.90;;;;;;5071380;28;20448;-73
2021/06/18 01:05:51;;;;;;;9.17;6.77;;;20.30;99.90;;;;;;5069569;28;20464;-73
2021/06/18 01:08:44;;;;;;;9.07;6.07;;;20.20;99.90;;;;;;5068142;28;20596;-73
2021/06/18 01:11:37;;;;;;;7.17;5.93;;;20.20;99.90;;;;;;5069072;28;20457;-73
2021/06/18 01:14:30;;;;;;;9.40;7.00;;;20.10;99.90;;;;;;5069902;28;20510;-73
2021/06/18 01:17:22;;;;;;;9.83;6.40;;;20.10;99.90;;;;;;5067633;28;20471;-73
2021/06/18 01:20:25;;;;;;;8.30;5.60;;;20.10;99.90;;;;;;5062646;28;20449;-73
2021/06/18 01:23:23;;;;;;;14.73;6.83;;;20.00;99.90;;;;;;5065116;28;20432;-73
2021/06/18 01:26:26;;;;;;;15.02;6.53;;;20.00;99.90;;;;;;5066135;28;21000;-73
2021/06/18 01:29:13;;;;;;;11.17;6.60;;;20.00;99.90;;;;;;5065094;28;20236;-73
2021/06/18 01:32:00;;;;;;;7.17;6.43;;;20.10;99.90;;;;;;5071544;28;20518;-73
2021/06/18 01:34:47;;;;;;;6.27;5.67;;;20.10;99.90;;;;;;5067150;28;20451;-73
2021/06/18 01:37:35;;;;;;;15.30;7.03;;;20.10;99.90;;;;;;5060076;28;20578;-73
2021/06/18 01:40:22;;;;;;;21.47;6.23;;;20.10;99.90;;;;;;5069304;28;20812;-73
2021/06/18 01:43:10;;;;;;;8.90;6.20;;;20.00;99.90;;;;;;5071321;28;20453;-73
2021/06/18 01:45:58;;;;;;;11.67;6.83;;;19.90;99.90;;;;;;5057864;28;20454;-73
2021/06/18 01:48:47;;;;;;;7.07;5.63;;;19.90;99.90;;;;;;5071964;28;20604;-73
2021/06/18 01:51:34;;;;;;;11.27;6.40;;;19.80;99.90;;;;;;5064604;28;20555;-73
2021/06/18 01:54:26;;;;;;;9.23;6.23;;;19.80;99.90;;;;;;5074038;28;20560;-73
2021/06/18 01:57:15;;;;;;;9.40;6.47;;;19.80;99.90;;;;;;5068635;28;20459;-73
2021/06/18 02:00:01;;;;;;;11.23;5.90;;;19.80;99.90;;;;;;5065555;28;20495;-73
2021/06/18 02:02:49;;;;;;;8.43;6.47;;;19.80;99.90;;;;;;5070550;28;20551;-73
2021/06/18 02:05:37;;;;;;;10.90;7.07;;;19.80;99.90;;;;;;5065885;28;20346;-73
2021/06/18 02:08:27;;;;;;;11.67;6.17;;;19.90;99.90;;;;;;5072704;28;20565;-73
2021/06/18 02:11:14;;;;;;;7.20;6.50;;;19.80;99.90;;;;;;5072844;28;20516;-73
2021/06/18 02:14:02;;;;;;;10.53;5.97;;;19.80;99.90;;;;;;5070707;28;20507;-73
2021/06/18 02:16:53;;;;;;;10.50;6.00;;;19.80;99.90;;;;;;5072122;28;20514;-73
2021/06/18 02:19:41;;;;;;;6.00;5.40;;;19.80;99.90;;;;;;5077874;28;20561;-74
2021/06/18 02:22:29;;;;;;;7.20;5.70;;;19.80;99.90;;;;;;5073462;28;20442;-73
2021/06/18 02:25:16;;;;;;;7.50;6.20;;;19.80;99.90;;;;;;5073920;28;20458;-73
2021/06/18 02:28:03;;;;;;;8.20;5.97;;;19.80;99.90;;;;;;5072067;28;20535;-73
2021/06/18 02:30:50;;;;;;;7.67;6.60;;;19.70;99.90;;;;;;5071608;28;21016;-73
2021/06/18 02:33:37;;;;;;;12.17;6.63;;;19.50;99.90;;;;;;5068863;28;20447;-73
2021/06/18 02:36:24;;;;;;;6.30;5.70;;;19.50;99.90;;;;;;5072821;28;20997;-73
2021/06/18 02:39:11;;;;;;;9.67;5.73;;;19.50;99.90;;;;;;5074232;28;20443;-73
2021/06/18 02:41:57;;;;;;;8.47;6.10;;;19.50;99.90;;;;;;5069608;28;20514;-72
2021/06/18 02:44:43;;;;;;;8.60;6.87;;;19.50;99.90;;;;;;5065442;28;20504;-73
2021/06/18 02:47:33;;;;;;;10.23;6.30;;;19.50;99.90;;;;;;5071411;28;20584;-73
2021/06/18 02:50:29;;;;;;;10.10;6.53;;;19.40;99.90;;;;;;5068884;28;20508;-73
2021/06/18 02:53:26;;;;;;;8.60;6.00;;;19.40;99.90;;;;;;5071913;28;21022;-73
2021/06/18 02:56:21;;;;;;;9.80;7.10;;;19.40;99.90;;;;;;5062016;28;20447;-72
2021/06/18 02:59:13;;;;;;;7.20;6.50;;;19.40;99.90;;;;;;5069659;28;20443;-73
2021/06/18 03:02:00;;;;;;;7.60;6.07;;;19.50;99.90;;;;;;5068405;28;20442;-72
2021/06/18 03:04:48;;;;;;;12.23;5.73;;;19.40;99.90;;;;;;5064169;28;20838;-73
2021/06/18 03:07:36;;;;;;;9.00;5.90;;;19.40;99.90;;;;;;5061964;28;20532;-73
2021/06/18 03:10:26;;;;;;;10.33;6.27;;;19.30;99.90;;;;;;5072532;28;20478;-73
2021/06/18 03:13:15;;;;;;;6.83;5.70;;;19.30;99.90;;;;;;5066404;28;20416;-73
2021/06/18 03:16:03;;;;;;;12.63;5.70;;;19.30;99.90;;;;;;5067772;28;20444;-73
2021/06/18 03:18:50;;;;;;;7.73;6.03;;;19.20;99.90;;;;;;5068698;28;20457;-73
2021/06/18 03:21:38;;;;;;;7.37;5.97;;;19.00;99.90;;;;;;5074945;28;20569;-72
2021/06/18 03:24:27;;;;;;;9.30;5.90;;;19.00;99.90;;;;;;5072574;28;20856;-73
2021/06/18 03:27:15;;;;;;;16.63;6.33;;;19.00;99.90;;;;;;5067933;28;20483;-73
2021/06/18 03:30:01;;;;;;;11.60;6.70;;;19.00;99.90;;;;;;5070600;28;20473;-72
2021/06/18 03:32:49;;;;;;;7.63;6.47;;;18.80;99.90;;;;;;5060714;28;20452;-73
2021/06/18 03:35:36;;;;;;;10.70;6.77;;;18.80;99.90;;;;;;5066592;28;20970;-73
2021/06/18 03:38:22;;;;;;;11.23;6.30;;;18.90;99.90;;;;;;5068424;28;20454;-73
2021/06/18 03:41:08;;;;;;;8.60;6.90;;;19.00;99.90;;;;;;5070240;28;20498;-73
2021/06/18 03:43:56;;;;;;;10.07;6.03;;;19.10;99.90;;;;;;5075469;28;20930;-73
2021/06/18 03:46:44;;;;;;;10.03;6.30;;;19.30;99.90;;;;;;5069639;28;20992;-73
2021/06/18 03:49:30;;;;;;;12.93;6.10;;;19.40;99.90;;;;;;5067565;28;20437;-73
2021/06/18 03:52:17;;;;;;;14.60;6.20;;;19.30;99.90;;;;;;5070666;28;20494;-73
2021/06/18 03:55:04;;;;;;;15.37;6.13;;;19.40;99.90;;;;;;5068185;28;20564;-73
2021/06/18 03:57:52;;;;;;;8.40;5.77;;;19.40;99.90;;;;;;5070871;28;20447;-73
2021/06/18 04:00:43;;;;;;;12.00;6.30;;;19.40;99.90;;;;;;5074478;28;20720;-73
2021/06/18 04:03:30;;;;;;;9.83;5.53;;;19.60;99.90;;;;;;5066680;28;20813;-73
2021/06/18 04:06:18;;;;;;;8.60;6.40;;;19.50;99.90;;;;;;5071090;28;20882;-73
2021/06/18 04:09:04;;;;;;;12.70;6.80;;;19.50;99.90;;;;;;5066815;28;20429;-72
2021/06/18 04:11:49;;;;;;;9.63;6.10;;;19.50;99.90;;;;;;5071737;28;20435;-72
2021/06/18 04:14:36;;;;;;;7.63;6.90;;;19.50;99.90;;;;;;5071976;28;20535;-73
2021/06/18 04:17:23;;;;;;;10.23;5.93;;;19.40;99.90;;;;;;5072803;28;20482;-73
2021/06/18 04:20:11;;;;;;;7.87;6.60;;;19.40;99.90;;;;;;5072547;28;20432;-73
2021/06/18 04:22:57;;;;;;;9.87;7.00;;;19.50;99.90;;;;;;5071895;28;20516;-73
2021/06/18 04:25:42;;;;;;;8.37;6.80;;;19.50;99.90;;;;;;5072785;28;20497;-73
2021/06/18 04:28:29;;;;;;;8.13;7.13;;;19.60;99.90;;;;;;5070900;28;20983;-73
2021/06/18 04:31:14;;;;;;;13.33;6.57;;;19.60;99.90;;;;;;5067254;28;20997;-73
2021/06/18 04:34:01;;;;;;;8.90;6.90;;;19.60;99.90;;;;;;5069128;28;20443;-72
2021/06/18 04:36:47;;;;;;;14.83;6.47;;;19.80;99.90;;;;;;5066738;28;20467;-73
2021/06/18 04:39:33;;;;;;;14.60;6.57;;;19.80;99.90;;;;;;5070523;28;20471;-73
2021/06/18 04:42:19;;;;;;;14.73;6.60;;;19.80;99.90;;;;;;5074468;28;20451;-73
2021/06/18 04:45:06;;;;;;;14.00;7.13;;;19.90;99.90;;;;;;5070736;28;20442;-73
2021/06/18 04:47:52;;;;;;;10.60;7.20;;;20.10;99.90;;;;;;5068142;28;20451;-73
2021/06/18 04:50:39;;;;;;;11.90;7.03;;;20.30;99.90;;;;;;5069860;28;20466;-73
2021/06/18 04:53:25;;;;;;;10.97;6.40;;;20.40;99.90;;;;;;5072148;28;20583;-73
2021/06/18 04:56:11;;;;;;;17.20;7.40;;;20.50;99.90;;;;;;5067582;28;20626;-73
2021/06/18 04:58:59;;;;;;;23.93;8.17;;;20.50;99.90;;;;;;5061011;28;20520;-73
2021/06/18 05:01:44;;;;;;;15.90;8.00;;;20.60;99.90;;;;;;5065434;28;20447;-73
2021/06/18 05:04:30;;;;;;;19.50;8.93;;;20.70;99.90;;;;;;5063615;28;20959;-73
2021/06/18 05:07:17;;;;;;;15.37;7.60;;;20.80;99.90;;;;;;5065567;28;20466;-73
2021/06/18 05:10:04;;;;;;;26.97;7.60;;;20.90;99.90;;;;;;5068145;28;20485;-73
2021/06/18 05:12:50;;;;;;;18.73;9.10;;;21.00;99.90;;;;;;5066541;28;20426;-72
2021/06/18 05:15:36;;;;;;;13.13;7.70;;;21.10;99.90;;;;;;5068203;28;20467;-72
2021/06/18 05:18:21;;;;;;;22.17;7.60;;;21.20;99.90;;;;;;5069077;28;20536;-73
2021/06/18 05:21:07;;;;;;;18.23;7.87;;;21.20;99.90;;;;;;5067643;28;20443;-73
2021/06/18 05:23:54;;;;;;;14.07;7.70;;;21.40;99.90;;;;;;5066270;28;20823;-73
2021/06/18 05:26:41;;;;;;;14.87;8.67;;;21.40;99.90;;;;;;5068699;28;20534;-72
2021/06/18 05:29:28;;;;;;;13.30;8.83;;;21.60;99.90;;;;;;5068505;28;20423;-73
2021/06/18 05:32:13;;;;;;;11.80;9.00;;;21.70;99.90;;;;;;5066001;28;20436;-73
2021/06/18 05:34:59;;;;;;;11.40;9.10;;;21.90;99.90;;;;;;5067843;28;20557;-72
2021/06/18 05:37:44;;;;;;;11.40;9.67;;;22.10;99.90;;;;;;5062615;28;20561;-72
2021/06/18 05:40:31;;;;;;;9.13;8.30;;;22.20;99.90;;;;;;5069701;28;20530;-73
2021/06/18 05:43:17;;;;;;;10.20;9.20;;;22.30;99.90;;;;;;5067556;28;20476;-73
2021/06/18 05:46:02;;;;;;;10.23;9.23;;;22.40;99.90;;;;;;5060263;28;20551;-73
2021/06/18 05:48:48;;;;;;;12.87;10.80;;;22.50;99.90;;;;;;5069030;28;20474;-73
2021/06/18 05:51:34;;;;;;;12.00;9.83;;;22.70;99.90;;;;;;5067700;28;20491;-73
2021/06/18 05:54:20;;;;;;;17.97;10.37;;;22.80;99.90;;;;;;5069556;28;20464;-73
2021/06/18 05:57:07;;;;;;;16.20;10.90;;;23.00;99.90;;;;;;5065076;28;21006;-72
2021/06/18 05:59:53;;;;;;;22.43;9.80;;;23.20;99.90;;;;;;5058068;28;20445;-71
2021/06/18 06:02:38;;;;;;;16.93;10.00;;;23.40;99.90;;;;;;5067146;28;20903;-72
2021/06/18 06:05:24;;;;;;;16.57;9.33;;;23.50;99.90;;;;;;5069710;28;20443;-72
2021/06/18 06:08:11;;;;;;;14.57;9.60;;;23.80;99.90;;;;;;5067099;28;20428;-72
2021/06/18 06:10:57;;;;;;;12.60;10.37;;;23.90;99.90;;;;;;5063645;28;20612;-73
2021/06/18 06:13:45;;;;;;;11.30;9.77;;;24.00;99.90;;;;;;5063396;28;20445;-73
2021/06/18 06:16:31;;;;;;;12.43;9.80;;;24.00;99.90;;;;;;5067546;28;20970;-73
2021/06/18 06:19:17;;;;;;;11.60;9.77;;;24.10;99.90;;;;;;5063662;28;20457;-74
2021/06/18 06:22:03;;;;;;;14.63;9.80;;;24.20;99.90;;;;;;5067208;28;20930;-72
2021/06/18 06:24:49;;;;;;;11.73;10.07;;;24.40;99.90;;;;;;5067032;28;20557;-72
2021/06/18 06:27:34;;;;;;;11.07;9.57;;;24.40;99.90;;;;;;5064762;28;20470;-72
2021/06/18 06:30:21;;;;;;;11.30;9.80;;;24.40;99.90;;;;;;5070632;28;20214;-73
2021/06/18 06:33:07;;;;;;;11.10;9.90;;;24.60;99.90;;;;;;5065259;28;20503;-73
2021/06/18 06:35:53;;;;;;;12.80;10.27;;;24.70;99.90;;;;;;5068996;28;20825;-74
2021/06/18 06:38:39;;;;;;;15.70;8.67;;;24.80;99.90;;;;;;5063186;28;20454;-73
2021/06/18 06:41:24;;;;;;;15.23;10.43;;;25.00;99.90;;;;;;5062869;28;20487;-73
2021/06/18 06:44:09;;;;;;;13.20;11.10;;;25.00;99.90;;;;;;5071349;28;20970;-73
2021/06/18 06:46:56;;;;;;;19.17;10.10;;;25.10;99.90;;;;;;5069150;28;20985;-74
2021/06/18 06:49:44;;;;;;;16.53;9.70;;;25.20;99.90;;;;;;5072751;28;20430;-72
2021/06/18 06:52:29;;;;;;;17.77;10.10;;;25.30;99.90;;;;;;5072390;28;20589;-73
2021/06/18 06:55:15;;;;;;;9.33;8.00;;;25.30;99.90;;;;;;5068027;28;20436;-73
2021/06/18 06:58:01;;;;;;;11.10;10.00;;;25.40;99.90;;;;;;5068168;28;20576;-72
2021/06/18 07:00:47;;;;;;;11.60;10.40;;;25.50;99.90;;;;;;5067544;28;20813;-71
2021/06/18 07:03:34;;;;;;;13.90;10.20;;;25.60;99.90;;;;;;5070186;28;20811;-72
2021/06/18 07:06:19;;;;;;;13.77;11.17;;;25.70;99.80;;;;;;5070327;28;20585;-72
2021/06/18 07:09:05;;;;;;;14.83;11.50;;;25.70;99.40;;;;;;5067374;28;20461;-71
2021/06/18 07:11:51;;;;;;;14.00;11.40;;;25.80;98.00;;;;;;5068378;28;20480;-70
2021/06/18 07:14:39;;;;;;;14.20;12.00;;;25.80;97.00;;;;;;5072236;28;20421;-72
2021/06/18 07:17:25;;;;;;;20.97;11.50;;;25.90;95.30;;;;;;5069187;28;20471;-72
2021/06/18 07:20:14;;;;;;;19.57;11.67;;;26.00;95.40;;;;;;5072682;28;20425;-72
2021/06/18 07:22:59;;;;;;;15.50;12.53;;;26.10;96.90;;;;;;5069402;28;21103;-71
2021/06/18 07:25:45;;;;;;;13.20;11.03;;;26.10;95.60;;;;;;5072098;28;21115;-72
2021/06/18 07:28:31;;;;;;;13.60;11.67;;;26.20;95.30;;;;;;5071196;28;20951;-72
2021/06/18 07:31:17;;;;;;;14.80;12.27;;;26.20;96.30;;;;;;5070863;28;20524;-72
2021/06/18 07:34:03;;;;;;;12.23;11.13;;;26.30;95.40;;;;;;5070006;28;20465;-72
2021/06/18 07:36:50;;;;;;;13.77;12.47;;;26.40;96.40;;;;;;5068518;28;20630;-73
2021/06/18 07:39:36;;;;;;;14.37;11.27;;;26.40;96.70;;;;;;5070191;28;20945;-72
2021/06/18 07:42:21;;;;;;;16.57;13.70;;;26.50;96.70;;;;;;5065448;28;20524;-72
2021/06/18 07:45:08;;;;;;;17.17;12.47;;;26.60;96.00;;;;;;5066031;28;20500;-72
2021/06/18 07:47:53;;;;;;;15.03;11.93;;;26.70;93.90;;;;;;5067988;28;20448;-73
2021/06/18 07:50:41;;;;;;;21.00;13.40;;;26.80;92.10;;;;;;5070212;28;20589;-73
2021/06/18 07:53:27;;;;;;;14.43;12.07;;;26.80;92.50;;;;;;5071831;28;20591;-73
2021/06/18 07:56:13;;;;;;;13.83;12.43;;;26.90;93.40;;;;;;5070172;28;20441;-73
2021/06/18 07:58:59;;;;;;;18.77;14.33;;;26.90;92.90;;;;;;5066972;28;20569;-73
2021/06/18 08:01:44;;;;;;;13.30;12.00;;;27.00;92.40;;;;;;5071969;28;20423;-73
2021/06/18 08:04:30;;;;;;;13.07;11.67;;;27.10;90.60;;;;;;5066543;28;20565;-73
2021/06/18 08:07:16;;;;;;;13.13;11.77;;;27.20;90.00;;;;;;5071038;28;20472;-73
2021/06/18 08:10:04;;;;;;;14.23;12.60;;;27.30;91.20;;;;;;5067810;28;20444;-73
2021/06/18 08:12:50;;;;;;;15.10;11.37;;;27.40;89.40;;;;;;5071128;28;20489;-73
2021/06/18 08:15:36;;;;;;;12.37;11.17;;;27.50;85.90;;;;;;5070064;28;20476;-73
2021/06/18 08:18:22;;;;;;;12.77;11.57;;;27.60;87.60;;;;;;5071724;28;20422;-73
2021/06/18 08:21:09;;;;;;;15.20;12.10;;;27.60;87.10;;;;;;5070021;28;20480;-73
2021/06/18 08:23:54;;;;;;;16.10;11.33;;;27.70;89.10;;;;;;5065084;28;20500;-73
2021/06/18 08:26:42;;;;;;;13.10;11.80;;;27.80;85.20;;;;;;5067410;28;20481;-73
2021/06/18 08:29:28;;;;;;;12.20;11.00;;;27.90;84.70;;;;;;5070970;28;20803;-73
2021/06/18 08:32:13;;;;;;;18.40;12.07;;;28.00;85.20;;;;;;5070690;28;20511;-73
2021/06/18 08:34:59;;;;;;;11.77;10.50;;;28.10;81.70;;;;;;5065435;28;20442;-73
2021/06/18 08:37:45;;;;;;;12.63;11.33;;;28.30;84.50;;;;;;5073109;28;20480;-75
2021/06/18 08:40:31;;;;;;;13.57;10.43;;;28.30;88.30;;;;;;5071441;28;20474;-72
2021/06/18 08:43:19;;;;;;;11.93;10.47;;;28.40;80.60;;;;;;5068746;28;20461;-72
2021/06/18 08:46:05;;;;;;;11.80;9.53;;;28.50;79.20;;;;;;5067940;28;20960;-73
2021/06/18 08:48:51;;;;;;;12.27;9.20;;;28.50;77.50;;;;;;5070839;28;20426;-72
2021/06/18 08:51:36;;;;;;;10.20;9.20;;;28.60;74.40;;;;;;5070793;28;20620;-72
2021/06/18 08:54:41;;;;;;;10.43;9.10;;;28.70;70.50;;;;;;5069214;28;20573;-73
2021/06/18 08:57:26;;;;;;;12.57;9.33;;;28.70;70.40;;;;;;5069810;28;20852;-72
2021/06/18 09:00:15;;;;;;;11.87;9.43;;;28.80;71.40;;;;;;5069404;28;20426;-72
2021/06/18 09:03:21;;;;;;;18.03;8.70;;;28.80;74.80;;;;;;5065452;28;20418;-73
2021/06/18 09:06:33;;;;;;;9.37;7.80;;;28.90;70.50;;;;;;5070281;28;20806;-72
2021/06/18 09:09:20;;;;;;;8.97;8.07;;;29.00;69.30;;;;;;5069988;28;20553;-73
2021/06/18 09:12:11;;;;;;;8.50;7.53;;;29.10;69.10;;;;;;5060360;28;20471;-73
2021/06/18 09:14:57;;;;;;;11.53;8.13;;;29.20;64.30;;;;;;5068945;28;20430;-73
2021/06/18 09:17:44;;;;;;;14.07;8.90;;;29.30;61.40;;;;;;5067348;28;20423;-73
2021/06/18 09:20:30;;;;;;;12.87;8.37;;;29.40;61.70;;;;;;5065487;28;20446;-72
2021/06/18 09:23:21;;;;;;;8.20;7.40;;;29.50;62.00;;;;;;5065190;28;20445;-72
2021/06/18 09:26:26;;;;;;;12.20;7.90;;;29.50;62.20;;;;;;5066230;28;20461;-71
2021/06/18 09:29:14;;;;;;;12.40;8.13;;;29.60;63.70;;;;;;5064151;28;20585;-72
2021/06/18 09:32:01;;;;;;;9.77;8.77;;;29.70;63.00;;;;;;5063100;28;20630;-72
2021/06/18 09:34:54;;;;;;;11.60;9.60;;;29.80;63.90;;;;;;5066941;28;20491;-73
2021/06/18 09:37:40;;;;;;;8.73;7.83;;;29.80;61.70;;;;;;5061472;28;20447;-73
2021/06/18 09:40:27;;;;;;;10.97;8.20;;;29.90;60.60;;;;;;5066692;28;20953;-72
2021/06/18 09:43:15;;;;;;;12.13;9.00;;;30.00;59.50;;;;;;5061851;28;20804;-72
2021/06/18 09:46:00;;;;;;;9.50;8.23;;;30.10;63.60;;;;;;5064783;28;20467;-72
2021/06/18 09:48:46;;;;;;;9.10;8.17;;;30.20;62.10;;;;;;5065799;28;20485;-73
2021/06/18 09:51:54;;;;;;;9.13;8.23;;;30.30;59.20;;;;;;5066394;28;20495;-73
2021/06/18 09:54:43;;;;;;;12.40;9.30;;;30.30;62.20;;;;;;5057453;28;20498;-73
2021/06/18 09:57:39;;;;;;;11.00;8.77;;;30.40;60.10;;;;;;5066345;28;20844;-72
2021/06/18 10:00:26;;;;;;;11.90;7.90;;;30.40;60.10;;;;;;5058290;28;20836;-73
2021/06/18 10:03:12;;;;;;;14.50;7.93;;;30.50;62.30;;;;;;5068243;28;20813;-71
2021/06/18 10:05:57;;;;;;;10.50;7.60;;;30.60;61.30;;;;;;5069326;28;20447;-70
2021/06/18 10:08:45;;;;;;;7.07;6.37;;;30.70;55.10;;;;;;5068916;28;20439;-73
2021/06/18 10:11:31;;;;;;;8.17;6.47;;;30.70;51.10;;;;;;5064479;28;20462;-72
2021/06/18 10:14:17;;;;;;;11.23;6.77;;;30.80;52.10;;;;;;5070337;28;20443;-72
2021/06/18 10:17:03;;;;;;;6.63;5.90;;;30.90;54.30;;;;;;5071887;28;20512;-72
2021/06/18 10:19:49;;;;;;;27.97;7.50;;;31.10;51.80;;;;;;5075223;28;20434;-72
2021/06/18 10:22:39;;;;;;;12.60;6.60;;;31.10;46.60;;;;;;5066262;28;20494;-72
2021/06/18 10:25:31;;;;;;;8.40;5.97;;;31.20;46.40;;;;;;5064230;28;20985;-73
2021/06/18 10:28:20;;;;;;;9.97;5.17;;;31.10;47.60;;;;;;5067835;28;20459;-73
2021/06/18 10:31:07;;;;;;;6.70;5.40;;;31.00;43.30;;;;;;5059760;28;20431;-74
2021/06/18 10:34:05;;;;;;;15.20;5.80;;;31.10;46.70;;;;;;5072154;28;20447;-74
2021/06/18 10:36:50;;;;;;;7.63;5.83;;;31.20;47.90;;;;;;5064901;28;20509;-74
2021/06/18 10:39:51;;;;;;;6.57;5.30;;;31.30;46.60;;;;;;5070772;28;20458;-74
2021/06/18 10:42:58;;;;;;;6.20;5.17;;;31.50;47.10;;;;;;5072151;28;20499;-72
2021/06/18 10:46:09;;;;;;;6.87;6.10;;;31.60;42.80;;;;;;5068450;28;20593;-74
2021/06/18 10:49:09;;;;;;;7.50;5.50;;;31.70;45.90;;;;;;5077363;28;20491;-74
2021/06/18 10:51:58;;;;;;;10.30;5.37;;;31.80;44.80;;;;;;5073279;28;20876;-74
2021/06/18 10:54:49;;;;;;;9.17;5.27;;;31.80;39.50;;;;;;5066279;28;21060;-73
2021/06/18 10:57:36;;;;;;;12.13;5.40;;;31.80;38.60;;;;;;5067145;28;20440;-72
2021/06/18 11:00:27;;;;;;;8.82;5.05;;;31.90;41.90;;;;;;5073715;28;20452;-74
2021/06/18 11:03:15;;;;;;;7.90;4.90;;;32.00;38.70;;;;;;5069268;28;20201;-74
2021/06/18 11:06:01;;;;;;;7.47;5.07;;;32.10;37.30;;;;;;5076047;28;20597;-74
2021/06/18 11:08:47;;;;;;;8.53;5.07;;;32.10;37.10;;;;;;5065623;28;20938;-74
2021/06/18 11:11:33;;;;;;;12.83;6.20;;;32.10;38.40;;;;;;5071807;28;20446;-74
2021/06/18 11:14:20;;;;;;;9.30;4.37;;;32.20;37.20;;;;;;5071308;28;20439;-72
2021/06/18 11:17:39;;;;;;;7.13;5.57;;;32.30;36.50;;;;;;5071399;28;21051;-74
2021/06/18 11:20:46;;;;;;;7.73;5.63;;;32.40;37.90;;;;;;5070134;28;20968;-74
2021/06/18 11:23:35;;;;;;;8.27;5.33;;;32.40;36.80;;;;;;5070501;28;20945;-75
2021/06/18 11:26:23;;;;;;;5.97;4.90;;;32.50;34.90;;;;;;5065522;28;20478;-74
2021/06/18 11:29:26;;;;;;;5.70;4.33;;;32.60;36.70;;;;;;5066687;28;20458;-74
2021/06/18 11:32:41;;;;;;;6.70;5.00;;;32.80;34.60;;;;;;5064488;28;20817;-73
2021/06/18 11:35:43;;;;;;;15.57;5.00;;;32.80;33.10;;;;;;5073461;28;20992;-71
2021/06/18 11:38:29;;;;;;;6.03;4.60;;;32.80;32.30;;;;;;5068754;28;20435;-72
2021/06/18 11:41:19;;;;;;;11.13;5.23;;;32.90;33.70;;;;;;5061409;28;20450;-72
2021/06/18 11:44:05;;;;;;;9.00;5.20;;;33.00;33.80;;;;;;5072040;28;20423;-73
2021/06/18 11:46:53;;;;;;;7.23;5.27;;;33.00;32.00;;;;;;5070285;28;20470;-72
2021/06/18 11:49:45;;;;;;;11.30;4.70;;;33.00;33.00;;;;;;5061625;28;20452;-72
2021/06/18 11:52:30;;;;;;;5.87;5.10;;;33.10;33.30;;;;;;5070034;28;20531;-72
2021/06/18 11:55:16;;;;;;;13.73;5.80;;;33.10;33.30;;;;;;5069243;28;20460;-72
2021/06/18 11:58:02;;;;;;;10.07;6.80;;;32.90;36.00;;;;;;5070545;28;20549;-73
2021/06/18 12:00:47;;;;;;;13.10;7.73;;;32.60;38.30;;;;;;5069061;28;20447;-75
2021/06/18 12:03:34;;;;;;;10.10;7.67;;;32.50;43.10;;;;;;5061413;28;20443;-72
2021/06/18 12:06:23;;;;;;;9.83;8.80;;;32.40;45.30;;;;;;5071219;28;21096;-72
2021/06/18 12:09:10;;;;;;;12.70;10.10;;;32.30;47.30;;;;;;5066532;28;20452;-72
2021/06/18 12:12:01;;;;;;;12.73;9.17;;;32.10;48.40;;;;;;5072531;28;20945;-73
2021/06/18 12:14:54;;;;;;;10.80;9.80;;;32.00;51.90;;;;;;5069312;28;20451;-73
2021/06/18 12:17:49;;;;;;;14.03;10.13;;;32.00;53.10;;;;;;5065465;28;20444;-73
2021/06/18 12:20:37;;;;;;;12.17;10.30;;;32.10;50.60;;;;;;5070136;28;20423;-73
2021/06/18 12:23:24;;;;;;;18.60;9.43;;;32.10;47.70;;;;;;5065880;28;20435;-74
2021/06/18 12:26:25;;;;;;;11.47;10.27;;;32.30;49.40;;;;;;5069502;28;20466;-75
2021/06/18 12:29:11;;;;;;;12.10;9.90;;;32.30;47.40;;;;;;5068460;28;21012;-73
2021/06/18 12:31:57;;;;;;;14.80;9.70;;;32.30;45.70;;;;;;5070790;28;20443;-75
2021/06/18 12:34:47;;;;;;;10.10;7.93;;;32.40;47.40;;;;;;5065786;28;20981;-74
2021/06/18 12:37:34;;;;;;;9.27;8.03;;;32.40;42.90;;;;;;5068103;28;21024;-73
2021/06/18 12:40:26;;;;;;;12.07;8.30;;;32.70;47.70;;;;;;5066509;28;21025;-73
2021/06/18 12:43:12;;;;;;;8.83;7.93;;;32.90;49.90;;;;;;5068594;28;20426;-72
2021/06/18 12:45:59;;;;;;;9.93;7.93;;;32.90;43.40;;;;;;5069023;28;20462;-74
2021/06/18 12:48:45;;;;;;;10.20;7.60;;;32.80;42.20;;;;;;5066923;28;20510;-73
2021/06/18 12:51:31;;;;;;;8.63;6.83;;;32.70;42.80;;;;;;5070626;28;20447;-74
2021/06/18 12:54:17;;;;;;;8.67;7.43;;;32.70;43.00;;;;;;5068240;28;20529;-74
2021/06/18 12:57:05;;;;;;;9.90;7.10;;;32.60;39.10;;;;;;5063466;28;20466;-74
2021/06/18 13:00:02;;;;;;;10.80;6.53;;;32.60;47.90;;;;;;5062465;28;20442;-72
2021/06/18 13:02:56;;;;;;;7.73;6.80;;;32.50;51.40;;;;;;5065139;28;20581;-73
2021/06/18 13:05:52;;;;;;;7.60;6.90;;;32.40;50.90;;;;;;5068357;28;20466;-72
2021/06/18 13:08:45;;;;;;;8.33;6.97;;;32.30;55.10;;;;;;5062622;28;20424;-71
2021/06/18 13:11:34;;;;;;;8.70;7.80;;;32.40;56.10;;;;;;5070913;28;20455;-71
2021/06/18 13:14:23;;;;;;;8.37;6.60;;;32.50;56.10;;;;;;5066699;28;20956;-71
2021/06/18 13:17:09;;;;;;;10.37;6.17;;;32.80;55.00;;;;;;5044035;28;20472;-71
2021/06/18 13:19:55;;;;;;;8.30;6.00;;;33.00;45.80;;;;;;5063245;28;20538;-71
2021/06/18 13:22:41;;;;;;;7.90;6.47;;;33.20;43.10;;;;;;5055830;28;20498;-71
2021/06/18 13:25:32;;;;;;;10.93;6.27;;;33.10;41.60;;;;;;5069273;28;20464;-73
2021/06/18 13:28:40;;;;;;;5.87;5.20;;;33.20;47.40;;;;;;5064452;28;21052;-71
2021/06/18 13:31:35;;;;;;;8.53;5.70;;;33.30;48.50;;;;;;5070892;28;20450;-70
2021/06/18 13:34:25;;;;;;;7.43;6.20;;;33.40;40.10;;;;;;5065487;28;20629;-70
2021/06/18 13:37:10;;;;;;;9.30;5.30;;;33.40;36.80;;;;;;5068330;28;20459;-71
2021/06/18 13:40:21;;;;;;;6.17;5.53;;;33.60;38.50;;;;;;5058301;28;20927;-71
2021/06/18 13:43:08;;;;;;;9.07;5.00;;;33.60;36.10;;;;;;5064300;28;20966;-69
2021/06/18 13:45:54;;;;;;;10.40;6.53;;;33.70;35.00;;;;;;5063461;28;20447;-69
2021/06/18 13:48:41;;;;;;;7.47;4.83;;;33.90;35.60;;;;;;5066783;28;20462;-70
2021/06/18 13:51:27;;;;;;;40.20;7.70;;;33.80;33.90;;;;;;5074877;28;20968;-70
2021/06/18 13:54:12;;;;;;;6.50;5.43;;;34.00;35.40;;;;;;5066826;28;20494;-70
2021/06/18 13:56:58;;;;;;;7.10;5.23;;;34.10;34.10;;;;;;5071026;28;20458;-70
2021/06/18 13:59:45;;;;;;;8.80;4.80;;;34.10;34.60;;;;;;5066387;28;20447;-70
2021/06/18 14:02:32;;;;;;;9.70;5.80;;;34.30;34.50;;;;;;5071102;28;20438;-70
2021/06/18 14:05:19;;;;;;;13.70;5.57;;;34.30;33.50;;;;;;5068859;28;20458;-70
2021/06/18 14:08:05;;;;;;;7.27;4.90;;;34.40;34.40;;;;;;5066738;28;21011;-70
2021/06/18 14:10:51;;;;;;;6.70;4.47;;;34.50;35.80;;;;;;5064674;28;20459;-71
2021/06/18 14:13:37;;;;;;;9.70;5.73;;;34.60;34.50;;;;;;5063170;28;20467;-70
2021/06/18 14:16:22;;;;;;;20.57;6.13;;;34.60;35.20;;;;;;5071242;28;20728;-70
2021/06/18 14:19:08;;;;;;;8.87;5.70;;;34.70;33.80;;;;;;5067574;28;20980;-69
2021/06/18 14:21:55;;;;;;;9.20;5.50;;;34.80;32.60;;;;;;5070852;28;20434;-71
2021/06/18 14:24:42;;;;;;;7.70;5.70;;;34.50;32.40;;;;;;5074165;28;20451;-71
2021/06/18 14:27:27;;;;;;;9.00;5.23;;;34.50;36.60;;;;;;5069905;28;20488;-71